sensor_id;sensor_type;location;lat;lon;timestamp;pressure;altitude;pressure_sealevel;temperature;humidity
77603;BME280;66771;52.434;17.056;2023-03-23T00:01:51;99870.56;;;8.02;80.54
77603;BME280;66771;52.434;17.056;2023-03-23T00:04:18;99875.45;;;8.08;80.32
77603;BME280;66771;52.434;17.056;2023-03-23T00:06:46;99874.08;;;8.12;80.31
77603;BME280;66771;52.434;17.056;2023-03-23T00:09:14;99871.61;;;8.15;80.32
77603;BME280;66771;52.434;17.056;2023-03-23T00:11:42;99863.84;;;8.16;80.19
77603;BME280;66771;52.434;17.056;2023-03-23T00:14:10;99861.77;;;8.15;80.22
77603;BME280;66771;52.434;17.056;2023-03-23T00:16:40;99863.77;;;8.15;80.17
77603;BME280;66771;52.434;17.056;2023-03-23T00:19:12;99861.40;;;8.11;80.13
77603;BME280;66771;52.434;17.056;2023-03-23T00:21:43;99865.99;;;8.07;79.82
77603;BME280;66771;52.434;17.056;2023-03-23T00:24:18;99865.38;;;8.04;79.90
77603;BME280;66771;52.434;17.056;2023-03-23T00:26:48;99866.06;;;8.02;79.83
77603;BME280;66771;52.434;17.056;2023-03-23T00:29:18;99862.85;;;7.99;79.80
77603;BME280;66771;52.434;17.056;2023-03-23T00:31:45;99856.92;;;7.95;79.87
77603;BME280;66771;52.434;17.056;2023-03-23T00:34:19;99856.23;;;7.93;79.92
77603;BME280;66771;52.434;17.056;2023-03-23T00:36:48;99856.02;;;7.91;79.83
77603;BME280;66771;52.434;17.056;2023-03-23T00:39:16;99855.90;;;7.88;79.83
77603;BME280;66771;52.434;17.056;2023-03-23T00:41:45;99854.03;;;7.84;79.57
77603;BME280;66771;52.434;17.056;2023-03-23T00:44:22;99854.03;;;7.82;79.76
77603;BME280;66771;52.434;17.056;2023-03-23T00:46:51;99847.98;;;7.79;79.90
77603;BME280;66771;52.434;17.056;2023-03-23T00:49:38;99849.94;;;7.72;79.76
77603;BME280;66771;52.434;17.056;2023-03-23T00:52:06;99849.11;;;7.69;79.88
77603;BME280;66771;52.434;17.056;2023-03-23T00:54:34;99841.74;;;7.65;79.72
77603;BME280;66771;52.434;17.056;2023-03-23T00:57:01;99839.62;;;7.58;79.62
77603;BME280;66771;52.434;17.056;2023-03-23T00:59:29;99841.00;;;7.54;79.73
77603;BME280;66771;52.434;17.056;2023-03-23T01:02:04;99836.46;;;7.48;79.81
77603;BME280;66771;52.434;17.056;2023-03-23T01:04:32;99831.30;;;7.43;79.89
77603;BME280;66771;52.434;17.056;2023-03-23T01:07:11;99824.88;;;7.36;79.82
77603;BME280;66771;52.434;17.056;2023-03-23T01:09:40;99824.98;;;7.31;79.69
77603;BME280;66771;52.434;17.056;2023-03-23T01:12:13;99822.45;;;7.27;79.82
77603;BME280;66771;52.434;17.056;2023-03-23T01:14:42;99821.61;;;7.22;79.73
77603;BME280;66771;52.434;17.056;2023-03-23T01:17:10;99818.95;;;7.15;79.95
77603;BME280;66771;52.434;17.056;2023-03-23T01:19:37;99820.27;;;7.07;80.07
77603;BME280;66771;52.434;17.056;2023-03-23T01:22:04;99819.84;;;7.03;80.00
77603;BME280;66771;52.434;17.056;2023-03-23T01:24:32;99822.17;;;7.01;79.99
77603;BME280;66771;52.434;17.056;2023-03-23T01:27:01;99822.73;;;6.98;80.21
77603;BME280;66771;52.434;17.056;2023-03-23T01:29:40;99812.16;;;6.91;80.21
77603;BME280;66771;52.434;17.056;2023-03-23T01:32:28;99822.34;;;6.94;80.42
77603;BME280;66771;52.434;17.056;2023-03-23T01:35:05;99817.23;;;6.88;80.56
77603;BME280;66771;52.434;17.056;2023-03-23T01:37:33;99811.44;;;6.87;80.47
77603;BME280;66771;52.434;17.056;2023-03-23T01:40:02;99803.84;;;6.83;80.29
77603;BME280;66771;52.434;17.056;2023-03-23T01:42:33;99804.84;;;6.81;80.41
77603;BME280;66771;52.434;17.056;2023-03-23T01:45:30;99806.44;;;6.79;80.54
77603;BME280;66771;52.434;17.056;2023-03-23T01:48:07;99795.77;;;6.83;81.07
77603;BME280;66771;52.434;17.056;2023-03-23T01:50:42;99796.63;;;6.96;81.14
77603;BME280;66771;52.434;17.056;2023-03-23T01:53:11;99790.77;;;7.07;81.42
77603;BME280;66771;52.434;17.056;2023-03-23T01:55:41;99788.95;;;7.19;81.23
77603;BME280;66771;52.434;17.056;2023-03-23T01:58:30;99788.34;;;7.27;80.81
77603;BME280;66771;52.434;17.056;2023-03-23T02:01:03;99782.09;;;7.33;81.00
77603;BME280;66771;52.434;17.056;2023-03-23T02:03:39;99779.10;;;7.40;80.91
77603;BME280;66771;52.434;17.056;2023-03-23T02:06:08;99776.63;;;7.46;81.04
77603;BME280;66771;52.434;17.056;2023-03-23T02:08:57;99772.81;;;7.53;80.83
77603;BME280;66771;52.434;17.056;2023-03-23T02:11:25;99771.23;;;7.56;80.34
77603;BME280;66771;52.434;17.056;2023-03-23T02:13:53;99767.92;;;7.52;80.08
77603;BME280;66771;52.434;17.056;2023-03-23T02:33:35;99746.45;;;7.63;80.23
77603;BME280;66771;52.434;17.056;2023-03-23T02:36:23;99739.91;;;7.62;80.17
77603;BME280;66771;52.434;17.056;2023-03-23T02:41:32;99728.49;;;7.60;80.04
77603;BME280;66771;52.434;17.056;2023-03-23T02:44:02;99730.02;;;7.61;79.96
77603;BME280;66771;52.434;17.056;2023-03-23T02:46:30;99733.70;;;7.66;80.08
77603;BME280;66771;52.434;17.056;2023-03-23T02:48:58;99730.07;;;7.71;80.19
77603;BME280;66771;52.434;17.056;2023-03-23T02:51:27;99725.48;;;7.77;79.98
77603;BME280;66771;52.434;17.056;2023-03-23T02:53:56;99722.70;;;7.76;79.98
77603;BME280;66771;52.434;17.056;2023-03-23T02:56:25;99721.48;;;7.75;79.91
77603;BME280;66771;52.434;17.056;2023-03-23T02:58:55;99717.49;;;7.76;79.87
77603;BME280;66771;52.434;17.056;2023-03-23T03:03:54;99725.38;;;7.85;79.83
77603;BME280;66771;52.434;17.056;2023-03-23T03:07:07;99727.73;;;7.85;79.77
77603;BME280;66771;52.434;17.056;2023-03-23T03:09:57;99728.23;;;7.85;79.83
77603;BME280;66771;52.434;17.056;2023-03-23T03:20:28;99726.73;;;7.91;79.55
77603;BME280;66771;52.434;17.056;2023-03-23T03:22:57;99719.73;;;7.88;79.36
77603;BME280;66771;52.434;17.056;2023-03-23T03:25:26;99724.31;;;7.87;79.63
77603;BME280;66771;52.434;17.056;2023-03-23T03:27:56;99720.68;;;7.88;79.63
77603;BME280;66771;52.434;17.056;2023-03-23T03:30:36;99718.84;;;7.99;79.84
77603;BME280;66771;52.434;17.056;2023-03-23T03:33:05;99714.41;;;8.18;79.72
77603;BME280;66771;52.434;17.056;2023-03-23T03:35:36;99712.73;;;8.28;79.48
77603;BME280;66771;52.434;17.056;2023-03-23T03:38:06;99708.90;;;8.31;79.39
77603;BME280;66771;52.434;17.056;2023-03-23T03:40:34;99705.63;;;8.34;79.20
77603;BME280;66771;52.434;17.056;2023-03-23T03:43:02;99707.45;;;8.47;79.15
77603;BME280;66771;52.434;17.056;2023-03-23T03:45:29;99700.06;;;8.53;79.03
77603;BME280;66771;52.434;17.056;2023-03-23T03:47:56;99702.73;;;8.62;78.68
77603;BME280;66771;52.434;17.056;2023-03-23T03:50:23;99705.45;;;8.73;78.55
77603;BME280;66771;52.434;17.056;2023-03-23T03:52:50;99701.78;;;8.76;78.28
77603;BME280;66771;52.434;17.056;2023-03-23T03:55:17;99698.27;;;8.75;78.09
77603;BME280;66771;52.434;17.056;2023-03-23T03:57:45;99705.31;;;8.80;78.26
77603;BME280;66771;52.434;17.056;2023-03-23T04:00:21;99705.33;;;8.83;77.88
77603;BME280;66771;52.434;17.056;2023-03-23T04:02:50;99704.52;;;8.86;78.11
77603;BME280;66771;52.434;17.056;2023-03-23T04:05:40;99700.23;;;8.87;77.98
77603;BME280;66771;52.434;17.056;2023-03-23T04:08:08;99698.12;;;8.89;77.84
77603;BME280;66771;52.434;17.056;2023-03-23T04:10:34;99694.05;;;8.90;77.81
77603;BME280;66771;52.434;17.056;2023-03-23T04:13:02;99698.81;;;8.91;77.64
77603;BME280;66771;52.434;17.056;2023-03-23T04:16:00;99702.88;;;8.98;77.89
77603;BME280;66771;52.434;17.056;2023-03-23T04:18:27;99704.11;;;9.01;77.63
77603;BME280;66771;52.434;17.056;2023-03-23T04:20:56;99703.14;;;9.04;77.50
77603;BME280;66771;52.434;17.056;2023-03-23T04:23:27;99702.61;;;9.04;77.45
77603;BME280;66771;52.434;17.056;2023-03-23T04:25:54;99704.58;;;9.10;76.93
77603;BME280;66771;52.434;17.056;2023-03-23T04:28:25;99692.58;;;9.12;76.93
77603;BME280;66771;52.434;17.056;2023-03-23T04:31:15;99696.70;;;9.22;76.72
77603;BME280;66771;52.434;17.056;2023-03-23T04:33:45;99690.30;;;9.30;76.51
77603;BME280;66771;52.434;17.056;2023-03-23T04:36:13;99683.00;;;9.27;76.82
77603;BME280;66771;52.434;17.056;2023-03-23T04:38:51;99690.52;;;9.31;76.71
77603;BME280;66771;52.434;17.056;2023-03-23T04:41:22;99684.29;;;9.35;76.07
77603;BME280;66771;52.434;17.056;2023-03-23T04:43:59;99679.17;;;9.44;75.98
77603;BME280;66771;52.434;17.056;2023-03-23T04:46:35;99673.41;;;9.52;76.20
77603;BME280;66771;52.434;17.056;2023-03-23T04:49:07;99668.52;;;9.53;75.82
77603;BME280;66771;52.434;17.056;2023-03-23T04:51:36;99666.85;;;9.55;75.88
77603;BME280;66771;52.434;17.056;2023-03-23T04:54:18;99666.20;;;9.56;75.53
77603;BME280;66771;52.434;17.056;2023-03-23T04:56:48;99664.89;;;9.61;75.36
77603;BME280;66771;52.434;17.056;2023-03-23T04:59:15;99660.58;;;9.72;75.20
77603;BME280;66771;52.434;17.056;2023-03-23T05:02:02;99656.50;;;9.79;74.65
77603;BME280;66771;52.434;17.056;2023-03-23T05:04:29;99655.16;;;9.86;74.63
77603;BME280;66771;52.434;17.056;2023-03-23T05:07:04;99656.55;;;9.94;74.27
77603;BME280;66771;52.434;17.056;2023-03-23T05:09:33;99655.68;;;10.00;74.53
77603;BME280;66771;52.434;17.056;2023-03-23T05:12:08;99656.98;;;10.03;73.98
77603;BME280;66771;52.434;17.056;2023-03-23T05:14:43;99653.91;;;10.05;74.03
77603;BME280;66771;52.434;17.056;2023-03-23T05:17:11;99654.55;;;10.11;73.95
77603;BME280;66771;52.434;17.056;2023-03-23T05:19:39;99648.80;;;10.20;73.13
77603;BME280;66771;52.434;17.056;2023-03-23T05:22:18;99644.61;;;10.27;73.18
77603;BME280;66771;52.434;17.056;2023-03-23T05:24:48;99640.64;;;10.31;73.11
77603;BME280;66771;52.434;17.056;2023-03-23T05:27:19;99645.45;;;10.35;72.31
77603;BME280;66771;52.434;17.056;2023-03-23T05:29:47;99650.58;;;10.42;72.86
77603;BME280;66771;52.434;17.056;2023-03-23T05:32:18;99640.54;;;10.47;72.56
77603;BME280;66771;52.434;17.056;2023-03-23T05:34:47;99631.64;;;10.57;71.96
77603;BME280;66771;52.434;17.056;2023-03-23T05:37:15;99633.19;;;10.65;71.34
77603;BME280;66771;52.434;17.056;2023-03-23T05:39:53;99633.09;;;10.73;70.99
77603;BME280;66771;52.434;17.056;2023-03-23T05:42:27;99627.66;;;10.78;71.22
77603;BME280;66771;52.434;17.056;2023-03-23T05:45:05;99627.02;;;10.81;71.62
77603;BME280;66771;52.434;17.056;2023-03-23T05:47:32;99622.94;;;10.80;71.60
77603;BME280;66771;52.434;17.056;2023-03-23T05:50:05;99627.25;;;10.82;71.23
77603;BME280;66771;52.434;17.056;2023-03-23T05:52:34;99630.35;;;10.89;70.65
77603;BME280;66771;52.434;17.056;2023-03-23T05:55:03;99636.23;;;10.97;70.33
77603;BME280;66771;52.434;17.056;2023-03-23T05:57:32;99642.52;;;11.05;70.12
77603;BME280;66771;52.434;17.056;2023-03-23T06:00:08;99640.74;;;11.10;70.00
77603;BME280;66771;52.434;17.056;2023-03-23T06:02:49;99647.29;;;11.15;70.47
77603;BME280;66771;52.434;17.056;2023-03-23T06:05:23;99647.17;;;11.18;70.06
77603;BME280;66771;52.434;17.056;2023-03-23T06:07:52;99643.98;;;11.25;70.31
77603;BME280;66771;52.434;17.056;2023-03-23T06:10:20;99645.84;;;11.34;70.37
77603;BME280;66771;52.434;17.056;2023-03-23T06:12:54;99642.73;;;11.42;69.73
77603;BME280;66771;52.434;17.056;2023-03-23T06:15:29;99640.38;;;11.50;69.44
77603;BME280;66771;52.434;17.056;2023-03-23T06:17:59;99635.73;;;11.59;69.53
77603;BME280;66771;52.434;17.056;2023-03-23T06:20:30;99634.95;;;11.66;68.75
77603;BME280;66771;52.434;17.056;2023-03-23T06:22:57;99630.65;;;11.74;69.30
77603;BME280;66771;52.434;17.056;2023-03-23T06:25:30;99626.55;;;11.80;67.67
77603;BME280;66771;52.434;17.056;2023-03-23T06:27:57;99616.36;;;11.83;67.43
77603;BME280;66771;52.434;17.056;2023-03-23T06:30:25;99613.27;;;11.92;67.39
77603;BME280;66771;52.434;17.056;2023-03-23T06:32:53;99611.42;;;11.94;68.36
77603;BME280;66771;52.434;17.056;2023-03-23T06:35:31;99608.50;;;11.92;67.73
77603;BME280;66771;52.434;17.056;2023-03-23T06:38:11;99604.94;;;11.88;67.35
77603;BME280;66771;52.434;17.056;2023-03-23T06:40:47;99611.84;;;11.93;67.06
77603;BME280;66771;52.434;17.056;2023-03-23T06:43:15;99621.09;;;11.98;67.41
77603;BME280;66771;52.434;17.056;2023-03-23T06:45:54;99626.10;;;12.07;67.07
77603;BME280;66771;52.434;17.056;2023-03-23T06:48:39;99625.97;;;12.22;66.52
77603;BME280;66771;52.434;17.056;2023-03-23T06:51:07;99626.61;;;12.40;65.37
77603;BME280;66771;52.434;17.056;2023-03-23T06:53:35;99628.30;;;12.58;65.93
77603;BME280;66771;52.434;17.056;2023-03-23T06:56:03;99630.38;;;12.73;64.79
77603;BME280;66771;52.434;17.056;2023-03-23T06:58:32;99630.33;;;12.83;64.88
77603;BME280;66771;52.434;17.056;2023-03-23T07:00:59;99622.86;;;12.96;65.12
77603;BME280;66771;52.434;17.056;2023-03-23T07:03:37;99619.16;;;13.14;64.73
77603;BME280;66771;52.434;17.056;2023-03-23T07:06:04;99615.11;;;13.36;64.60
77603;BME280;66771;52.434;17.056;2023-03-23T07:08:35;99613.84;;;13.64;64.72
77603;BME280;66771;52.434;17.056;2023-03-23T07:11:03;99612.80;;;13.89;60.61
77603;BME280;66771;52.434;17.056;2023-03-23T07:13:30;99615.20;;;14.12;61.72
77603;BME280;66771;52.434;17.056;2023-03-23T07:16:00;99616.64;;;14.26;59.88
77603;BME280;66771;52.434;17.056;2023-03-23T07:18:27;99613.16;;;14.33;61.91
77603;BME280;66771;52.434;17.056;2023-03-23T07:20:57;99606.60;;;14.33;60.61
77603;BME280;66771;52.434;17.056;2023-03-23T07:23:29;99608.63;;;14.28;61.18
77603;BME280;66771;52.434;17.056;2023-03-23T07:26:04;99615.54;;;14.19;59.60
77603;BME280;66771;52.434;17.056;2023-03-23T07:28:46;99617.50;;;14.12;59.11
77603;BME280;66771;52.434;17.056;2023-03-23T07:31:36;99618.80;;;14.17;58.46
77603;BME280;66771;52.434;17.056;2023-03-23T07:34:03;99622.01;;;14.30;60.37
77603;BME280;66771;52.434;17.056;2023-03-23T07:36:47;99621.24;;;14.46;57.41
77603;BME280;66771;52.434;17.056;2023-03-23T07:39:15;99613.38;;;14.62;58.55
77603;BME280;66771;52.434;17.056;2023-03-23T07:41:42;99620.16;;;14.76;58.91
77603;BME280;66771;52.434;17.056;2023-03-23T07:44:16;99628.58;;;14.79;59.12
77603;BME280;66771;52.434;17.056;2023-03-23T07:46:44;99624.73;;;14.71;59.34
77603;BME280;66771;52.434;17.056;2023-03-23T07:49:14;99620.54;;;14.65;59.37
77603;BME280;66771;52.434;17.056;2023-03-23T07:51:45;99621.89;;;14.62;59.65
77603;BME280;66771;52.434;17.056;2023-03-23T07:54:14;99621.51;;;14.56;57.82
77603;BME280;66771;52.434;17.056;2023-03-23T07:57:03;99619.58;;;14.42;58.49
77603;BME280;66771;52.434;17.056;2023-03-23T07:59:32;99624.15;;;14.33;57.89
77603;BME280;66771;52.434;17.056;2023-03-23T08:02:00;99622.88;;;14.27;57.73
77603;BME280;66771;52.434;17.056;2023-03-23T08:04:41;99628.04;;;14.24;58.73
77603;BME280;66771;52.434;17.056;2023-03-23T08:07:30;99624.00;;;14.28;57.89
77603;BME280;66771;52.434;17.056;2023-03-23T08:10:08;99630.39;;;14.29;57.39
77603;BME280;66771;52.434;17.056;2023-03-23T08:12:57;99630.89;;;14.28;58.38
77603;BME280;66771;52.434;17.056;2023-03-23T08:15:44;99634.50;;;14.31;57.76
77603;BME280;66771;52.434;17.056;2023-03-23T08:18:31;99635.49;;;14.42;57.78
77603;BME280;66771;52.434;17.056;2023-03-23T08:21:22;99629.77;;;14.55;56.70
77603;BME280;66771;52.434;17.056;2023-03-23T08:24:19;99620.27;;;14.66;57.52
77603;BME280;66771;52.434;17.056;2023-03-23T08:27:13;99622.71;;;14.74;57.33
77603;BME280;66771;52.434;17.056;2023-03-23T08:29:46;99626.38;;;14.82;55.99
77603;BME280;66771;52.434;17.056;2023-03-23T08:32:33;99627.92;;;14.86;55.61
77603;BME280;66771;52.434;17.056;2023-03-23T08:35:28;99624.31;;;14.91;55.52
77603;BME280;66771;52.434;17.056;2023-03-23T08:38:16;99617.79;;;14.96;56.34
77603;BME280;66771;52.434;17.056;2023-03-23T08:41:03;99619.14;;;14.96;55.62
77603;BME280;66771;52.434;17.056;2023-03-23T08:43:57;99617.63;;;14.96;55.69
77603;BME280;66771;52.434;17.056;2023-03-23T08:46:53;99620.17;;;15.12;56.14
77603;BME280;66771;52.434;17.056;2023-03-23T08:49:55;99622.65;;;15.30;56.52
77603;BME280;66771;52.434;17.056;2023-03-23T08:52:47;99619.25;;;15.39;54.75
77603;BME280;66771;52.434;17.056;2023-03-23T08:55:28;99626.90;;;15.37;54.66
77603;BME280;66771;52.434;17.056;2023-03-23T08:58:18;99627.23;;;15.36;54.26
77603;BME280;66771;52.434;17.056;2023-03-23T09:01:23;99619.08;;;15.31;54.87
77603;BME280;66771;52.434;17.056;2023-03-23T09:03:58;99617.46;;;15.29;55.19
77603;BME280;66771;52.434;17.056;2023-03-23T09:06:45;99613.23;;;15.29;54.19
77603;BME280;66771;52.434;17.056;2023-03-23T09:09:12;99617.02;;;15.35;54.37
77603;BME280;66771;52.434;17.056;2023-03-23T09:11:39;99618.27;;;15.43;53.74
77603;BME280;66771;52.434;17.056;2023-03-23T09:14:07;99625.95;;;15.50;54.24
77603;BME280;66771;52.434;17.056;2023-03-23T09:16:34;99627.52;;;15.57;53.45
77603;BME280;66771;52.434;17.056;2023-03-23T09:19:01;99626.23;;;15.64;52.58
77603;BME280;66771;52.434;17.056;2023-03-23T09:21:28;99627.07;;;15.68;52.07
77603;BME280;66771;52.434;17.056;2023-03-23T09:23:56;99632.70;;;15.67;52.00
77603;BME280;66771;52.434;17.056;2023-03-23T09:26:25;99637.99;;;15.72;51.97
77603;BME280;66771;52.434;17.056;2023-03-23T09:28:52;99638.94;;;15.90;52.86
77603;BME280;66771;52.434;17.056;2023-03-23T09:31:19;99644.45;;;16.24;51.95
77603;BME280;66771;52.434;17.056;2023-03-23T09:33:48;99642.27;;;16.56;51.43
77603;BME280;66771;52.434;17.056;2023-03-23T09:36:18;99637.81;;;16.88;50.66
77603;BME280;66771;52.434;17.056;2023-03-23T09:38:48;99636.70;;;17.02;49.56
77603;BME280;66771;52.434;17.056;2023-03-23T09:49:42;99640.98;;;17.18;49.48
77603;BME280;66771;52.434;17.056;2023-03-23T09:52:15;99639.44;;;17.18;50.07
77603;BME280;66771;52.434;17.056;2023-03-23T09:54:46;99646.29;;;17.08;49.44
77603;BME280;66771;52.434;17.056;2023-03-23T10:00:03;99654.45;;;16.81;48.48
77603;BME280;66771;52.434;17.056;2023-03-23T10:03:06;99653.45;;;16.63;49.12
77603;BME280;66771;52.434;17.056;2023-03-23T10:05:42;99659.09;;;16.42;48.96
77603;BME280;66771;52.434;17.056;2023-03-23T10:08:22;99656.46;;;16.13;49.35
77603;BME280;66771;52.434;17.056;2023-03-23T10:11:15;99670.24;;;15.87;50.35
77603;BME280;66771;52.434;17.056;2023-03-23T10:19:47;99684.64;;;15.27;52.31
77603;BME280;66771;52.434;17.056;2023-03-23T10:22:22;99696.38;;;15.09;52.28
77603;BME280;66771;52.434;17.056;2023-03-23T10:25:03;99702.18;;;14.89;52.87
77603;BME280;66771;52.434;17.056;2023-03-23T10:27:45;99705.30;;;14.73;53.65
77603;BME280;66771;52.434;17.056;2023-03-23T10:33:02;99709.29;;;14.49;54.88
77603;BME280;66771;52.434;17.056;2023-03-23T10:35:36;99720.04;;;14.42;56.32
77603;BME280;66771;52.434;17.056;2023-03-23T10:38:09;99719.05;;;14.34;57.42
77603;BME280;66771;52.434;17.056;2023-03-23T10:40:47;99719.35;;;14.23;58.02
77603;BME280;66771;52.434;17.056;2023-03-23T10:43:15;99720.87;;;14.07;59.72
77603;BME280;66771;52.434;17.056;2023-03-23T10:45:44;99722.89;;;13.95;61.08
77603;BME280;66771;52.434;17.056;2023-03-23T10:48:26;99733.22;;;13.88;62.17
77603;BME280;66771;52.434;17.056;2023-03-23T10:50:57;99731.30;;;13.87;63.67
77603;BME280;66771;52.434;17.056;2023-03-23T10:53:33;99733.11;;;14.02;62.79
77603;BME280;66771;52.434;17.056;2023-03-23T10:56:01;99736.27;;;14.12;62.10
77603;BME280;66771;52.434;17.056;2023-03-23T10:58:30;99736.00;;;14.20;61.76
77603;BME280;66771;52.434;17.056;2023-03-23T11:00:59;99733.30;;;14.28;61.60
77603;BME280;66771;52.434;17.056;2023-03-23T11:06:05;99728.16;;;14.50;60.82
77603;BME280;66771;52.434;17.056;2023-03-23T11:08:51;99731.48;;;14.69;60.68
77603;BME280;66771;52.434;17.056;2023-03-23T11:14:15;99724.08;;;14.83;59.70
77603;BME280;66771;52.434;17.056;2023-03-23T11:16:58;99723.68;;;14.90;59.64
77603;BME280;66771;52.434;17.056;2023-03-23T11:19:29;99719.65;;;14.97;60.00
77603;BME280;66771;52.434;17.056;2023-03-23T11:22:12;99718.95;;;15.01;59.78
77603;BME280;66771;52.434;17.056;2023-03-23T11:24:43;99720.90;;;15.10;59.98
77603;BME280;66771;52.434;17.056;2023-03-23T11:27:11;99723.48;;;15.28;60.16
77603;BME280;66771;52.434;17.056;2023-03-23T11:29:52;99722.59;;;15.37;59.67
77603;BME280;66771;52.434;17.056;2023-03-23T11:32:24;99720.99;;;15.41;59.23
77603;BME280;66771;52.434;17.056;2023-03-23T11:34:57;99722.87;;;15.44;58.25
77603;BME280;66771;52.434;17.056;2023-03-23T11:37:34;99725.48;;;15.45;57.97
77603;BME280;66771;52.434;17.056;2023-03-23T11:42:56;99704.71;;;15.59;58.51
77603;BME280;66771;52.434;17.056;2023-03-23T11:45:51;99702.76;;;15.59;57.61
77603;BME280;66771;52.434;17.056;2023-03-23T11:50:54;99706.41;;;15.29;57.46
77603;BME280;66771;52.434;17.056;2023-03-23T11:56:11;99705.41;;;15.01;57.79
77603;BME280;66771;52.434;17.056;2023-03-23T11:58:40;99700.83;;;14.89;57.82
77603;BME280;66771;52.434;17.056;2023-03-23T12:09:21;99700.44;;;14.71;58.41
77603;BME280;66771;52.434;17.056;2023-03-23T12:15:03;99697.52;;;14.89;58.54
77603;BME280;66771;52.434;17.056;2023-03-23T12:17:45;99701.90;;;15.10;58.64
77603;BME280;66771;52.434;17.056;2023-03-23T12:20:37;99698.52;;;15.25;58.21
77603;BME280;66771;52.434;17.056;2023-03-23T12:23:24;99699.92;;;15.36;58.37
77603;BME280;66771;52.434;17.056;2023-03-23T12:51:42;99694.98;;;14.87;58.51
77603;BME280;66771;52.434;17.056;2023-03-23T12:54:29;99699.98;;;14.83;58.48
77603;BME280;66771;52.434;17.056;2023-03-23T13:02:16;99694.20;;;14.70;58.84
77603;BME280;66771;52.434;17.056;2023-03-23T13:04:55;99693.58;;;14.69;58.90
77603;BME280;66771;52.434;17.056;2023-03-23T13:07:32;99693.63;;;14.72;58.84
77603;BME280;66771;52.434;17.056;2023-03-23T13:10:32;99691.86;;;14.76;58.90
77603;BME280;66771;52.434;17.056;2023-03-23T13:13:00;99696.52;;;14.83;58.86
77603;BME280;66771;52.434;17.056;2023-03-23T13:18:55;99695.55;;;14.89;58.96
77603;BME280;66771;52.434;17.056;2023-03-23T13:21:32;99696.44;;;14.91;59.04
77603;BME280;66771;52.434;17.056;2023-03-23T13:24:03;99693.45;;;14.90;58.68
77603;BME280;66771;52.434;17.056;2023-03-23T13:26:31;99691.02;;;14.94;58.75
77603;BME280;66771;52.434;17.056;2023-03-23T13:29:05;99691.65;;;15.01;58.74
77603;BME280;66771;52.434;17.056;2023-03-23T13:31:37;99688.91;;;15.06;59.02
77603;BME280;66771;52.434;17.056;2023-03-23T13:34:14;99682.63;;;15.11;58.55
77603;BME280;66771;52.434;17.056;2023-03-23T13:36:51;99685.61;;;15.15;57.73
77603;BME280;66771;52.434;17.056;2023-03-23T13:39:25;99682.11;;;15.15;57.95
77603;BME280;66771;52.434;17.056;2023-03-23T14:05:49;99669.01;;;14.96;58.65
77603;BME280;66771;52.434;17.056;2023-03-23T14:10:59;99671.14;;;14.88;58.89
77603;BME280;66771;52.434;17.056;2023-03-23T14:13:31;99674.14;;;14.84;58.55
77603;BME280;66771;52.434;17.056;2023-03-23T14:16:04;99668.23;;;14.83;59.00
77603;BME280;66771;52.434;17.056;2023-03-23T14:18:38;99673.39;;;14.84;59.06
77603;BME280;66771;52.434;17.056;2023-03-23T14:21:11;99670.67;;;14.84;58.70
77603;BME280;66771;52.434;17.056;2023-03-23T14:23:39;99666.71;;;14.84;58.74
77603;BME280;66771;52.434;17.056;2023-03-23T14:26:12;99672.15;;;14.84;58.65
77603;BME280;66771;52.434;17.056;2023-03-23T14:28:44;99671.05;;;14.84;58.56
77603;BME280;66771;52.434;17.056;2023-03-23T14:31:19;99680.97;;;14.81;58.77
77603;BME280;66771;52.434;17.056;2023-03-23T14:33:48;99678.48;;;14.79;58.77
77603;BME280;66771;52.434;17.056;2023-03-23T14:36:23;99679.13;;;14.80;58.96
77603;BME280;66771;52.434;17.056;2023-03-23T14:41:40;99676.83;;;14.83;58.83
77603;BME280;66771;52.434;17.056;2023-03-23T14:44:11;99675.34;;;14.81;59.22
77603;BME280;66771;52.434;17.056;2023-03-23T14:46:39;99675.88;;;14.81;59.43
77603;BME280;66771;52.434;17.056;2023-03-23T14:49:12;99672.38;;;14.80;59.48
77603;BME280;66771;52.434;17.056;2023-03-23T14:51:50;99661.31;;;14.77;59.38
77603;BME280;66771;52.434;17.056;2023-03-23T14:54:37;99666.36;;;14.73;59.86
77603;BME280;66771;52.434;17.056;2023-03-23T14:57:14;99669.07;;;14.70;59.48
77603;BME280;66771;52.434;17.056;2023-03-23T14:59:46;99667.85;;;14.69;59.98
77603;BME280;66771;52.434;17.056;2023-03-23T15:04:50;99672.21;;;14.80;60.04
77603;BME280;66771;52.434;17.056;2023-03-23T15:07:20;99671.41;;;14.82;59.89
77603;BME280;66771;52.434;17.056;2023-03-23T15:09:49;99666.33;;;14.81;59.89
77603;BME280;66771;52.434;17.056;2023-03-23T15:12:26;99663.77;;;14.77;59.85
77603;BME280;66771;52.434;17.056;2023-03-23T15:14:57;99658.86;;;14.72;60.17
77603;BME280;66771;52.434;17.056;2023-03-23T15:17:27;99663.64;;;14.68;60.29
77603;BME280;66771;52.434;17.056;2023-03-23T15:19:56;99657.64;;;14.65;60.56
77603;BME280;66771;52.434;17.056;2023-03-23T15:22:29;99665.52;;;14.64;60.61
77603;BME280;66771;52.434;17.056;2023-03-23T15:25:10;99658.08;;;14.62;60.61
77603;BME280;66771;52.434;17.056;2023-03-23T15:27:43;99654.07;;;14.61;60.66
77603;BME280;66771;52.434;17.056;2023-03-23T15:30:15;99661.67;;;14.61;60.68
77603;BME280;66771;52.434;17.056;2023-03-23T15:32:44;99661.23;;;14.63;60.98
77603;BME280;66771;52.434;17.056;2023-03-23T15:35:15;99655.80;;;14.91;60.81
77603;BME280;66771;52.434;17.056;2023-03-23T15:37:45;99666.13;;;15.24;60.19
77603;BME280;66771;52.434;17.056;2023-03-23T15:40:17;99664.79;;;15.47;59.91
77603;BME280;66771;52.434;17.056;2023-03-23T15:42:45;99663.62;;;15.59;59.48
77603;BME280;66771;52.434;17.056;2023-03-23T15:47:48;99676.08;;;15.45;58.67
77603;BME280;66771;52.434;17.056;2023-03-23T15:52:47;99683.65;;;15.27;59.13
77603;BME280;66771;52.434;17.056;2023-03-23T15:55:28;99691.70;;;15.22;58.36